createdAt,value
2018-12-27T00:00:20.422Z,3.90
2018-12-27T00:03:01.270Z,3.40
2018-12-27T00:05:41.617Z,3.33
2018-12-27T00:08:22.595Z,3.20
2018-12-27T00:11:03.519Z,3.60
2018-12-27T00:13:43.995Z,3.27
2018-12-27T00:16:24.770Z,3.57
2018-12-27T00:19:05.424Z,2.63
2018-12-27T00:21:46.242Z,3.03
2018-12-27T00:24:27.522Z,2.90
2018-12-27T00:27:08.715Z,2.70
2018-12-27T00:29:49.698Z,3.00
2018-12-27T00:32:29.981Z,3.40
2018-12-27T00:35:10.499Z,3.10
2018-12-27T00:37:51.531Z,3.43
2018-12-27T00:40:32.635Z,3.70
2018-12-27T00:43:13.480Z,3.70
2018-12-27T00:45:53.826Z,4.17
2018-12-27T00:48:34.380Z,4.27
2018-12-27T00:51:15.620Z,4.20
2018-12-27T00:53:56.815Z,3.67
2018-12-27T00:56:37.603Z,3.63
2018-12-27T00:59:17.947Z,2.83
2018-12-27T01:01:58.847Z,3.40
2018-12-27T01:04:39.235Z,3.33
2018-12-27T01:07:19.552Z,4.20
2018-12-27T01:12:42.554Z,3.43
2018-12-27T01:15:23.254Z,3.47
2018-12-27T01:18:03.882Z,3.13
2018-12-27T01:20:44.663Z,4.60
2018-12-27T01:23:25.190Z,3.33
2018-12-27T01:26:05.992Z,4.00
2018-12-27T01:28:46.983Z,3.27
2018-12-27T01:31:27.726Z,3.73
2018-12-27T01:34:08.363Z,2.73
2018-12-27T01:36:48.855Z,3.70
2018-12-27T01:39:29.396Z,3.30
2018-12-27T01:42:09.881Z,3.27
2018-12-27T01:44:50.355Z,3.10
2018-12-27T01:47:30.983Z,3.03
2018-12-27T01:50:12.252Z,2.90
2018-12-27T01:52:52.931Z,2.80
2018-12-27T01:55:33.378Z,1.60
2018-12-27T01:58:14.098Z,1.50
2018-12-27T02:00:55.203Z,0.80
2018-12-27T02:03:35.911Z,0.80
2018-12-27T02:06:16.602Z,0.90
2018-12-27T02:08:57.631Z,0.80
2018-12-27T02:11:38.100Z,0.80
2018-12-27T02:14:18.810Z,0.77
2018-12-27T02:16:59.970Z,0.70
2018-12-27T02:19:40.635Z,0.80
2018-12-27T02:22:21.349Z,0.60
2018-12-27T02:25:02.747Z,0.90
2018-12-27T02:27:43.219Z,0.93
2018-12-27T02:30:23.987Z,0.80
2018-12-27T02:33:04.906Z,1.10
2018-12-27T02:35:45.901Z,1.00
2018-12-27T02:38:26.575Z,0.80
2018-12-27T02:41:07.364Z,0.80
2018-12-27T02:43:47.971Z,1.03
2018-12-27T02:46:16.881Z,1.10
2018-12-27T02:49:04.915Z,1.50
2018-12-27T02:51:53.261Z,1.23
2018-12-27T02:55:00.495Z,1.40
2018-12-27T02:57:48.798Z,1.30
2018-12-27T03:00:36.850Z,1.40
2018-12-27T03:03:24.897Z,1.40
2018-12-27T03:06:12.953Z,1.50
2018-12-27T03:09:01.067Z,1.53
2018-12-27T03:11:49.384Z,1.30
2018-12-27T03:14:37.759Z,1.53
2018-12-27T03:17:26.078Z,1.47
2018-12-27T03:20:14.440Z,1.70
2018-12-27T03:23:02.571Z,1.13
2018-12-27T03:25:50.612Z,1.30
2018-12-27T03:28:38.671Z,1.10
2018-12-27T03:31:27.007Z,1.33
2018-12-27T03:34:15.281Z,1.30
2018-12-27T03:37:03.343Z,1.00
2018-12-27T03:39:51.384Z,1.37
2018-12-27T03:42:39.446Z,1.40
2018-12-27T03:45:20.331Z,1.43
2018-12-27T03:48:00.831Z,1.30
2018-12-27T03:50:41.706Z,1.40
2018-12-27T03:53:22.675Z,1.27
2018-12-27T03:56:03.606Z,1.70
2018-12-27T03:58:44.210Z,1.93
2018-12-27T04:01:24.933Z,1.83
2018-12-27T04:04:05.630Z,2.10
2018-12-27T04:06:46.517Z,1.70
2018-12-27T04:09:26.867Z,2.00
2018-12-27T04:12:07.398Z,1.67
2018-12-27T04:14:48.010Z,1.50
2018-12-27T04:17:29.457Z,2.30
2018-12-27T04:20:09.960Z,2.20
2018-12-27T04:22:50.815Z,3.50
2018-12-27T04:25:31.692Z,3.50
2018-12-27T04:28:12.680Z,3.47
2018-12-27T04:30:53.195Z,3.53
2018-12-27T04:33:33.997Z,3.73
2018-12-27T04:36:14.778Z,3.67
2018-12-27T04:38:55.874Z,2.70
2018-12-27T04:41:36.518Z,3.77
2018-12-27T04:44:17.143Z,3.77
2018-12-27T04:46:57.737Z,2.70
2018-12-27T04:49:38.554Z,2.73
2018-12-27T04:52:20.202Z,3.10
2018-12-27T04:55:00.933Z,3.00
2018-12-27T04:57:41.439Z,3.30
2018-12-27T05:00:22.139Z,3.17
2018-12-27T05:03:02.615Z,3.53
2018-12-27T05:05:43.317Z,3.60
2018-12-27T05:08:23.935Z,2.50
2018-12-27T05:11:04.544Z,3.27
2018-12-27T05:13:45.109Z,3.17
2018-12-27T05:16:25.537Z,3.53
2018-12-27T05:19:05.923Z,2.83
2018-12-27T05:21:46.630Z,2.43
2018-12-27T05:24:27.472Z,2.50
2018-12-27T05:27:08.030Z,2.47
2018-12-27T05:29:48.723Z,2.73
2018-12-27T05:32:29.262Z,3.27
2018-12-27T05:35:09.940Z,3.40
2018-12-27T05:37:50.609Z,2.87
2018-12-27T05:40:31.350Z,3.00
2018-12-27T05:43:11.851Z,3.30
2018-12-27T05:45:52.481Z,3.20
2018-12-27T05:48:33.437Z,3.30
2018-12-27T05:51:13.991Z,3.53
2018-12-27T05:53:54.736Z,3.77
2018-12-27T05:56:35.391Z,3.60
2018-12-27T05:59:16.404Z,3.27
2018-12-27T06:01:57.131Z,3.80
2018-12-27T06:04:38.208Z,3.20
2018-12-27T06:07:19.291Z,3.30
2018-12-27T06:10:00.230Z,3.20
2018-12-27T06:12:41.440Z,3.10
2018-12-27T06:15:22.198Z,2.50
2018-12-27T06:18:02.767Z,2.77
2018-12-27T06:20:43.263Z,3.23
2018-12-27T06:23:23.791Z,3.00
2018-12-27T06:26:04.357Z,2.87
2018-12-27T06:28:45.003Z,3.57
2018-12-27T06:31:25.727Z,2.50
2018-12-27T06:34:06.283Z,2.80
2018-12-27T06:36:46.856Z,2.93
2018-12-27T06:39:27.923Z,2.40
2018-12-27T06:42:08.422Z,3.57
2018-12-27T06:44:49.302Z,2.90
2018-12-27T06:47:29.656Z,3.23
2018-12-27T06:50:09.953Z,2.93
2018-12-27T06:52:50.564Z,3.23
2018-12-27T06:55:31.402Z,3.00
2018-12-27T06:58:12.358Z,3.67
2018-12-27T07:00:52.961Z,3.10
2018-12-27T07:03:33.774Z,3.10
2018-12-27T07:06:14.647Z,3.73
2018-12-27T07:08:55.187Z,3.77
2018-12-27T07:11:35.797Z,3.00
2018-12-27T07:14:16.519Z,3.60
2018-12-27T07:16:57.483Z,4.47
2018-12-27T07:19:37.997Z,3.63
2018-12-27T07:22:18.568Z,3.60
2018-12-27T07:24:59.173Z,3.63
2018-12-27T07:27:40.209Z,3.50
2018-12-27T07:30:20.915Z,3.13
2018-12-27T07:33:01.285Z,3.30
2018-12-27T07:35:42.161Z,2.93
2018-12-27T07:38:22.967Z,3.23
2018-12-27T07:41:03.718Z,2.90
2018-12-27T07:43:44.394Z,3.57
2018-12-27T07:46:25.107Z,3.70
2018-12-27T07:49:05.689Z,5.40
2018-12-27T07:51:46.622Z,4.00
2018-12-27T07:54:27.128Z,3.70
2018-12-27T07:57:07.722Z,3.97
2018-12-27T07:59:48.527Z,3.77
2018-12-27T08:02:28.999Z,4.10
2018-12-27T08:05:09.649Z,4.40
2018-12-27T08:07:50.206Z,4.23
2018-12-27T08:10:30.578Z,4.60
2018-12-27T08:13:11.026Z,4.63
2018-12-27T08:15:51.655Z,4.70
2018-12-27T08:18:32.449Z,4.63
2018-12-27T08:21:13.290Z,4.60
2018-12-27T08:23:53.791Z,5.73
2018-12-27T08:26:34.541Z,4.70
2018-12-27T08:29:15.474Z,4.57
2018-12-27T08:31:56.165Z,5.03
2018-12-27T08:34:37.198Z,4.10
2018-12-27T08:37:18.128Z,3.80
2018-12-27T08:39:58.551Z,4.40
2018-12-27T08:42:39.118Z,4.00
2018-12-27T08:45:19.696Z,4.47
2018-12-27T08:48:00.214Z,3.87
2018-12-27T08:50:40.799Z,3.40
2018-12-27T08:53:21.300Z,4.60
2018-12-27T08:56:01.790Z,3.77
2018-12-27T08:58:42.468Z,3.80
2018-12-27T09:01:23.259Z,3.50
2018-12-27T09:04:03.978Z,3.40
2018-12-27T09:06:44.599Z,4.03
2018-12-27T09:09:25.355Z,3.90
2018-12-27T09:12:06.054Z,2.90
2018-12-27T09:14:46.835Z,3.30
2018-12-27T09:17:27.761Z,3.03
2018-12-27T09:20:08.241Z,2.63
2018-12-27T09:22:49.058Z,2.83
2018-12-27T09:25:29.894Z,3.00
2018-12-27T09:28:10.891Z,3.47
2018-12-27T09:30:51.814Z,4.07
2018-12-27T09:33:32.428Z,4.43
2018-12-27T09:36:13.419Z,4.70
2018-12-27T09:38:54.115Z,5.30
2018-12-27T09:41:34.878Z,5.13
2018-12-27T09:44:15.508Z,4.10
2018-12-27T09:46:56.272Z,3.97
2018-12-27T09:49:36.953Z,6.03
2018-12-27T09:52:18.016Z,3.70
2018-12-27T09:54:58.862Z,3.70
2018-12-27T09:57:39.648Z,2.83
2018-12-27T10:00:20.562Z,2.90
2018-12-27T10:03:01.243Z,2.40
2018-12-27T10:05:42.189Z,3.00
2018-12-27T10:08:22.859Z,2.80
2018-12-27T10:11:03.708Z,2.80
2018-12-27T10:13:44.924Z,2.13
2018-12-27T10:19:07.811Z,2.23
2018-12-27T10:21:48.186Z,2.27
2018-12-27T10:24:29.049Z,2.00
2018-12-27T10:27:09.575Z,2.30
2018-12-27T10:29:50.184Z,2.53
2018-12-27T10:32:30.755Z,2.03
2018-12-27T10:35:11.700Z,2.20
2018-12-27T10:37:52.112Z,2.00
2018-12-27T10:40:32.652Z,1.97
2018-12-27T10:43:13.359Z,2.57
2018-12-27T10:45:54.639Z,2.30
2018-12-27T10:48:35.220Z,1.90
2018-12-27T10:51:15.851Z,2.63
2018-12-27T10:53:56.244Z,1.27
2018-12-27T10:56:36.951Z,2.13
2018-12-27T10:59:17.706Z,2.07
2018-12-27T11:01:58.510Z,1.50
2018-12-27T11:04:39.913Z,1.80
2018-12-27T11:07:21.399Z,1.50
2018-12-27T11:10:02.327Z,1.60
2018-12-27T11:12:43.189Z,1.73
2018-12-27T11:15:23.767Z,1.77
2018-12-27T11:18:04.471Z,2.00
2018-12-27T11:20:45.112Z,1.50
2018-12-27T11:23:25.668Z,1.97
2018-12-27T11:26:06.319Z,1.80
2018-12-27T11:28:46.797Z,1.37
2018-12-27T11:31:27.607Z,1.50
2018-12-27T11:34:08.507Z,1.70
2018-12-27T11:36:48.913Z,1.70
2018-12-27T11:39:29.651Z,1.80
2018-12-27T11:42:10.299Z,1.50
2018-12-27T11:44:50.966Z,1.50
2018-12-27T11:47:31.890Z,1.40
2018-12-27T11:50:13.016Z,1.10
2018-12-27T11:52:54.041Z,1.50
2018-12-27T11:55:34.642Z,1.60
2018-12-27T11:58:15.552Z,1.40
2018-12-27T12:00:55.967Z,1.70
2018-12-27T12:03:36.831Z,1.57
2018-12-27T12:06:17.707Z,1.77
2018-12-27T12:08:58.543Z,1.70
2018-12-27T12:11:39.550Z,1.63
2018-12-27T12:14:20.119Z,1.50
2018-12-27T12:17:00.816Z,1.33
2018-12-27T12:19:41.447Z,1.33
2018-12-27T12:22:22.354Z,2.20
2018-12-27T12:25:03.021Z,1.70
2018-12-27T12:27:43.497Z,1.30
2018-12-27T12:30:24.435Z,1.30
2018-12-27T12:33:04.983Z,1.63
2018-12-27T12:35:45.396Z,1.60
2018-12-27T12:38:26.253Z,1.90
2018-12-27T12:41:06.800Z,1.90
2018-12-27T12:43:47.589Z,2.10
2018-12-27T12:46:28.224Z,1.60
2018-12-27T12:49:09.397Z,1.70
2018-12-27T12:51:50.007Z,1.53
2018-12-27T12:54:30.759Z,1.70
2018-12-27T12:57:11.498Z,1.73
2018-12-27T12:59:52.183Z,1.20
2018-12-27T13:02:32.695Z,1.13
2018-12-27T13:05:16.285Z,1.23
2018-12-27T13:08:00.048Z,1.10
2018-12-27T13:10:40.995Z,1.70
2018-12-27T13:13:21.613Z,1.57
2018-12-27T13:16:02.410Z,1.90
2018-12-27T13:18:47.273Z,1.83
2018-12-27T13:21:26.207Z,1.77
2018-12-27T13:24:06.995Z,1.43
2018-12-27T13:26:47.811Z,1.60
2018-12-27T13:29:28.272Z,1.67
2018-12-27T13:32:08.868Z,1.70
2018-12-27T13:34:50.507Z,1.80
2018-12-27T13:37:31.158Z,1.20
2018-12-27T13:40:12.032Z,1.60
2018-12-27T13:42:52.328Z,1.80
2018-12-27T13:45:33.080Z,1.30
2018-12-27T13:48:14.243Z,1.57
2018-12-27T13:50:55.399Z,1.30
2018-12-27T13:53:35.975Z,1.87
2018-12-27T13:56:16.777Z,2.13
2018-12-27T13:58:57.607Z,2.43
2018-12-27T14:01:38.439Z,2.83
2018-12-27T14:04:18.835Z,3.03
2018-12-27T14:06:59.454Z,1.87
2018-12-27T14:09:40.087Z,1.97
2018-12-27T14:12:20.736Z,1.87
2018-12-27T14:15:01.698Z,1.93
2018-12-27T14:17:42.411Z,2.37
2018-12-27T14:20:23.572Z,2.00
2018-12-27T14:23:04.276Z,2.13
2018-12-27T14:25:44.948Z,2.27
2018-12-27T14:28:25.791Z,2.30
2018-12-27T14:31:06.291Z,2.20
2018-12-27T14:33:47.294Z,2.37
2018-12-27T14:36:28.283Z,2.13
2018-12-27T14:39:09.224Z,2.30
2018-12-27T14:41:50.194Z,2.13
2018-12-27T14:44:19.385Z,2.23
2018-12-27T14:47:07.365Z,2.40
2018-12-27T14:49:55.362Z,2.17
2018-12-27T14:52:43.359Z,1.70
2018-12-27T14:55:31.652Z,2.20
2018-12-27T14:58:19.707Z,2.07
2018-12-27T15:01:07.962Z,2.20
2018-12-27T15:03:55.959Z,3.03
2018-12-27T15:06:47.976Z,4.40
2018-12-27T15:09:33.902Z,3.57
2018-12-27T15:12:21.861Z,2.50
2018-12-27T15:15:09.842Z,2.33
2018-12-27T15:17:58.137Z,1.90
2018-12-27T15:20:46.098Z,1.93
2018-12-27T15:23:34.104Z,1.97
2018-12-27T15:26:22.349Z,2.30
2018-12-27T15:32:04.472Z,2.93
2018-12-27T15:34:52.719Z,3.33
2018-12-27T15:37:40.952Z,2.53
2018-12-27T15:40:29.179Z,2.30
2018-12-27T15:43:17.227Z,1.93
2018-12-27T15:45:58.184Z,2.00
2018-12-27T15:48:38.718Z,1.90
2018-12-27T15:51:19.339Z,1.97
2018-12-27T15:53:59.907Z,1.80
2018-12-27T15:56:40.775Z,2.10
2018-12-27T15:59:21.196Z,2.40
2018-12-27T16:02:02.278Z,1.73
2018-12-27T16:04:42.685Z,2.10
2018-12-27T16:07:23.300Z,1.60
2018-12-27T16:10:04.203Z,1.83
2018-12-27T16:12:44.621Z,2.10
2018-12-27T16:15:25.278Z,2.00
2018-12-27T16:18:06.204Z,2.00
2018-12-27T16:20:46.978Z,1.60
2018-12-27T16:23:27.861Z,1.90
2018-12-27T16:26:08.495Z,2.63
2018-12-27T16:28:49.530Z,2.40
2018-12-27T16:31:29.907Z,1.87
2018-12-27T16:34:10.763Z,1.80
2018-12-27T16:36:51.562Z,3.00
2018-12-27T16:39:32.055Z,2.10
2018-12-27T16:42:12.818Z,2.30
2018-12-27T16:44:53.721Z,2.60
2018-12-27T16:47:34.255Z,2.40
2018-12-27T16:50:15.227Z,2.40
2018-12-27T16:52:55.955Z,2.00
2018-12-27T16:55:36.498Z,2.10
2018-12-27T16:58:17.332Z,2.27
2018-12-27T17:00:58.148Z,2.10
2018-12-27T17:03:39.161Z,1.70
2018-12-27T17:06:19.871Z,1.70
2018-12-27T17:09:00.430Z,2.17
2018-12-27T17:11:40.946Z,2.20
2018-12-27T17:14:21.931Z,2.43
2018-12-27T17:17:02.366Z,2.10
2018-12-27T17:19:42.975Z,2.33
2018-12-27T17:22:23.637Z,2.10
2018-12-27T17:25:04.707Z,1.67
2018-12-27T17:27:45.332Z,1.80
2018-12-27T17:30:25.924Z,1.80
2018-12-27T17:33:06.883Z,1.80
2018-12-27T17:35:47.545Z,1.90
2018-12-27T17:38:27.882Z,1.97
2018-12-27T17:41:08.481Z,2.10
2018-12-27T17:43:48.906Z,1.80
2018-12-27T17:46:29.393Z,1.87
2018-12-27T17:49:09.913Z,1.87
2018-12-27T17:51:50.537Z,2.47
2018-12-27T17:54:31.079Z,2.50
2018-12-27T17:57:11.498Z,1.97
2018-12-27T17:59:52.093Z,2.10
2018-12-27T18:02:34.348Z,1.93
2018-12-27T18:05:15.543Z,2.43
2018-12-27T18:07:56.361Z,2.17
2018-12-27T18:10:37.418Z,1.63
2018-12-27T18:13:18.543Z,1.97
2018-12-27T18:15:59.155Z,2.17
2018-12-27T18:18:39.653Z,1.80
2018-12-27T18:21:20.419Z,2.10
2018-12-27T18:24:01.147Z,2.00
2018-12-27T18:26:41.694Z,1.70
2018-12-27T18:29:22.385Z,1.80
2018-12-27T18:32:03.212Z,2.20
2018-12-27T18:34:43.802Z,2.23
2018-12-27T18:37:24.424Z,1.90
2018-12-27T18:40:05.043Z,1.97
2018-12-27T18:42:45.541Z,2.20
2018-12-27T18:45:26.208Z,1.60
2018-12-27T18:48:07.334Z,1.57
2018-12-27T18:50:48.243Z,1.60
2018-12-27T18:53:28.937Z,1.73
2018-12-27T18:56:09.948Z,1.70
2018-12-27T18:58:51.315Z,1.70
2018-12-27T19:01:31.987Z,1.50
2018-12-27T19:04:12.675Z,1.77
2018-12-27T19:06:53.747Z,1.60
2018-12-27T19:09:34.113Z,1.77
2018-12-27T19:12:14.847Z,2.40
2018-12-27T19:14:55.900Z,2.93
2018-12-27T19:17:37.043Z,2.90
2018-12-27T19:20:17.855Z,2.40
2018-12-27T19:22:58.733Z,2.27
2018-12-27T19:25:39.151Z,2.50
2018-12-27T19:28:20.078Z,3.03
2018-12-27T19:31:00.768Z,3.27
2018-12-27T19:33:41.656Z,2.67
2018-12-27T19:36:22.460Z,2.77
2018-12-27T19:39:03.955Z,2.20
2018-12-27T19:41:44.312Z,2.30
2018-12-27T19:44:25.067Z,2.40
2018-12-27T19:47:06.265Z,2.43
2018-12-27T19:49:46.617Z,2.23
2018-12-27T19:52:27.183Z,2.60
2018-12-27T19:55:08.209Z,3.93
2018-12-27T19:57:49.135Z,3.07
2018-12-27T20:00:29.984Z,3.67
2018-12-27T20:03:11.004Z,3.07
2018-12-27T20:05:52.039Z,3.00
2018-12-27T20:08:33.451Z,2.80
2018-12-27T20:11:14.883Z,2.70
2018-12-27T20:13:55.491Z,3.40
2018-12-27T20:16:36.216Z,3.00
2018-12-27T20:19:17.339Z,4.10
2018-12-27T20:21:58.114Z,3.67
2018-12-27T20:24:39.332Z,3.20
2018-12-27T20:27:20.623Z,3.70
2018-12-27T20:30:01.868Z,4.07
2018-12-27T20:32:42.963Z,3.80
2018-12-27T20:35:23.461Z,3.50
2018-12-27T20:38:06.828Z,4.60
2018-12-27T20:40:48.374Z,3.53
2018-12-27T20:43:29.161Z,4.17
2018-12-27T20:46:09.434Z,4.80
2018-12-27T20:48:50.307Z,4.40
2018-12-27T20:51:30.851Z,3.73
2018-12-27T20:54:11.592Z,4.37
2018-12-27T20:56:53.021Z,4.07
2018-12-27T20:59:34.095Z,4.20
2018-12-27T21:02:14.737Z,4.57
2018-12-27T21:04:55.739Z,4.37
2018-12-27T21:07:36.455Z,3.77
2018-12-27T21:10:17.239Z,4.70
2018-12-27T21:12:57.890Z,4.00
2018-12-27T21:15:38.917Z,3.87
2018-12-27T21:18:19.551Z,4.13
2018-12-27T21:21:00.547Z,3.67
2018-12-27T21:23:41.201Z,4.03
2018-12-27T21:26:21.787Z,4.30
2018-12-27T21:29:02.491Z,4.07
2018-12-27T21:31:43.234Z,3.20
2018-12-27T21:34:24.037Z,3.83
2018-12-27T21:37:04.646Z,3.60
2018-12-27T21:39:45.230Z,4.00
2018-12-27T21:42:25.668Z,4.20
2018-12-27T21:45:06.230Z,3.60
2018-12-27T21:47:47.377Z,3.23
2018-12-27T21:50:27.964Z,3.40
2018-12-27T21:53:08.699Z,3.43
2018-12-27T21:55:49.658Z,3.00
2018-12-27T21:58:29.986Z,4.30
2018-12-27T22:01:10.923Z,3.50
2018-12-27T22:03:51.814Z,4.50
2018-12-27T22:06:32.875Z,3.87
2018-12-27T22:09:13.528Z,3.70
2018-12-27T22:11:54.202Z,3.40
2018-12-27T22:14:35.186Z,4.30
2018-12-27T22:17:15.932Z,3.30
2018-12-27T22:19:56.543Z,4.23
2018-12-27T22:22:37.562Z,3.47
2018-12-27T22:25:18.581Z,3.40
2018-12-27T22:27:59.567Z,2.70
2018-12-27T22:30:40.667Z,2.90
2018-12-27T22:33:22.147Z,3.13
2018-12-27T22:36:02.527Z,2.80
2018-12-27T22:38:43.122Z,2.97
2018-12-27T22:41:23.673Z,2.93
2018-12-27T22:44:04.310Z,3.30
2018-12-27T22:49:45.032Z,3.90
2018-12-27T22:52:25.842Z,3.47
2018-12-27T22:55:06.734Z,3.20
2018-12-27T22:57:47.310Z,3.73
2018-12-27T23:00:46.982Z,3.47
2018-12-27T23:03:27.605Z,3.30
2018-12-27T23:06:08.507Z,3.57
2018-12-27T23:08:49.476Z,2.53
2018-12-27T23:11:29.837Z,4.00
2018-12-27T23:14:10.359Z,3.20
2018-12-27T23:16:51.146Z,3.47
2018-12-27T23:19:31.743Z,3.90
2018-12-27T23:22:12.192Z,3.67
2018-12-27T23:24:52.858Z,3.60
2018-12-27T23:27:34.127Z,3.53
2018-12-27T23:30:14.826Z,3.73
2018-12-27T23:32:55.722Z,3.57
2018-12-27T23:35:36.728Z,3.30
2018-12-27T23:38:17.356Z,3.37
2018-12-27T23:40:57.735Z,3.77
2018-12-27T23:43:38.274Z,3.57
2018-12-27T23:46:18.913Z,4.03
2018-12-27T23:48:59.319Z,3.20
2018-12-27T23:51:40.071Z,3.77
2018-12-27T23:54:20.626Z,3.33
2018-12-27T23:57:01.367Z,3.60
2018-12-27T23:59:42.292Z,3.50
